Time,TemperatureF,DewpointF,PressureIn,WindDirection,WindDirectionDegrees,WindSpeedMPH,WindSpeedGustMPH,Humidity,HourlyPrecipIn,Conditions,Clouds,dailyrainin,SolarRadiationWatts/m^2,SoftwareType,DateUTC
2013-10-22 00:01:00,54.6,53.8,30.08,SW,228,0.0,0.0,97,0.00,CLR,,0.00,0.0,WeatherDisplay:10.37,2013-10-22 04:01:00,
2013-10-22 00:02:00,54.7,53.9,30.07,SW,228,0.0,0.0,97,0.00,CLR,,0.00,0.0,WeatherDisplay:10.37,2013-10-22 04:02:00,
2013-10-22 00:07:00,54.7,53.9,30.07,SW,228,0.0,0.0,97,0.00,CLR,,0.00,0.0,WeatherDisplay:10.37,2013-10-22 04:07:00,
2013-10-22 00:12:00,54.7,53.9,30.07,SW,228,0.0,0.0,97,0.00,CLR,,0.00,0.0,WeatherDisplay:10.37,2013-10-22 04:12:00,
2013-10-22 00:17:00,54.8,54.0,30.07,SW,228,0.0,0.0,97,0.00,CLR,,0.00,0.0,WeatherDisplay:10.37,2013-10-22 04:17:00,
2013-10-22 00:22:00,54.7,53.9,30.07,SW,228,0.0,0.0,97,0.00,CLR,,0.00,0.0,WeatherDisplay:10.37,2013-10-22 04:22:00,
2013-10-22 00:27:00,54.9,54.1,30.07,SW,228,0.0,0.0,97,0.00,CLR,,0.00,0.0,WeatherDisplay:10.37,2013-10-22 04:27:00,
2013-10-22 00:32:00,54.8,54.0,30.07,SW,228,0.0,0.0,97,0.00,CLR,,0.00,0.0,WeatherDisplay:10.37,2013-10-22 04:32:00,
2013-10-22 01:03:00,54.3,53.2,30.07,SW,228,0.0,0.0,96,0.00,CLR,,0.00,0.0,WeatherDisplay:10.37,2013-10-22 05:03:00,
2013-10-22 01:08:00,54.3,53.5,30.07,SW,228,0.0,0.0,97,0.00,CLR,,0.00,0.0,WeatherDisplay:10.37,2013-10-22 05:08:00,
2013-10-22 01:13:00,54.3,53.5,30.07,SW,228,0.0,0.0,97,0.00,CLR,,0.00,0.0,WeatherDisplay:10.37,2013-10-22 05:13:00,
2013-10-22 01:18:00,54.4,53.6,30.07,SW,228,0.0,0.0,97,0.00,CLR,,0.00,0.0,WeatherDisplay:10.37,2013-10-22 05:18:00,
2013-10-22 01:23:00,54.5,53.7,30.06,SW,228,0.0,0.0,97,0.00,CLR,,0.00,0.0,WeatherDisplay:10.37,2013-10-22 05:23:00,
2013-10-22 01:28:00,54.8,54.0,30.07,SW,228,0.0,0.0,97,0.00,CLR,,0.00,0.0,WeatherDisplay:10.37,2013-10-22 05:28:00,
2013-10-22 01:33:00,55.1,54.3,30.07,SW,228,0.0,0.0,97,0.00,CLR,,0.00,0.0,WeatherDisplay:10.37,2013-10-22 05:33:00,
2013-10-22 01:38:00,55.2,54.4,30.06,SW,228,0.0,0.0,97,0.00,CLR,,0.00,0.0,WeatherDisplay:10.37,2013-10-22 05:38:00,
2013-10-22 01:43:00,55.3,54.7,30.06,SW,228,0.0,0.0,98,0.00,CLR,,0.00,0.0,WeatherDisplay:10.37,2013-10-22 05:43:00,
2013-10-22 01:48:00,55.4,54.6,30.06,SW,228,0.0,0.0,97,0.00,CLR,,0.00,0.0,WeatherDisplay:10.37,2013-10-22 05:48:00,
2013-10-22 01:53:00,55.2,54.4,30.07,SW,228,0.0,0.0,97,0.00,CLR,,0.00,0.0,WeatherDisplay:10.37,2013-10-22 05:53:00,
2013-10-22 01:58:00,54.8,53.7,30.07,SW,228,0.0,0.0,96,0.00,CLR,,0.00,0.0,WeatherDisplay:10.37,2013-10-22 05:58:00,
2013-10-22 02:03:00,54.6,53.5,30.07,SW,228,0.0,0.0,96,0.00,CLR,,0.00,0.0,WeatherDisplay:10.37,2013-10-22 06:03:00,
2013-10-22 02:08:00,54.5,53.4,30.07,SW,228,0.0,0.0,96,0.00,CLR,,0.00,0.0,WeatherDisplay:10.37,2013-10-22 06:08:00,
2013-10-22 02:13:00,54.6,53.8,30.06,SW,228,0.0,0.0,97,0.00,CLR,,0.00,0.0,WeatherDisplay:10.37,2013-10-22 06:13:00,
2013-10-22 02:18:00,54.8,54.0,30.06,SW,228,0.0,0.0,97,0.00,CLR,,0.00,0.0,WeatherDisplay:10.37,2013-10-22 06:18:00,
2013-10-22 02:23:00,54.8,54.0,30.06,SW,228,0.0,0.0,97,0.00,CLR,,0.00,0.0,WeatherDisplay:10.37,2013-10-22 06:23:00,
2013-10-22 02:28:00,55.0,54.2,30.06,SW,228,0.0,0.0,97,0.00,CLR,,0.00,0.0,WeatherDisplay:10.37,2013-10-22 06:28:00,
2013-10-22 02:33:00,55.1,54.3,30.06,SW,228,0.0,0.0,97,0.00,CLR,,0.00,0.0,WeatherDisplay:10.37,2013-10-22 06:33:00,
2013-10-22 02:38:00,55.3,54.7,30.05,SW,228,0.0,0.0,98,0.00,CLR,,0.00,0.0,WeatherDisplay:10.37,2013-10-22 06:38:00,
2013-10-22 02:43:00,55.3,54.5,30.05,SW,228,0.0,0.0,97,0.00,CLR,,0.00,0.0,WeatherDisplay:10.37,2013-10-22 06:43:00,
2013-10-22 02:48:00,54.9,54.1,30.05,SW,228,0.0,0.0,97,0.00,CLR,,0.00,0.0,WeatherDisplay:10.37,2013-10-22 06:48:00,
2013-10-22 02:53:00,54.6,53.5,30.04,SW,228,0.0,0.0,96,0.00,CLR,,0.00,0.0,WeatherDisplay:10.37,2013-10-22 06:53:00,
2013-10-22 02:58:00,54.6,53.8,30.04,SW,228,0.0,0.0,97,0.00,CLR,,0.00,0.0,WeatherDisplay:10.37,2013-10-22 06:58:00,
2013-10-22 03:03:00,54.7,53.9,30.04,SW,228,0.0,0.0,97,0.00,CLR,,0.00,0.0,WeatherDisplay:10.37,2013-10-22 07:03:00,
2013-10-22 03:08:00,54.8,54.0,30.04,SW,228,0.0,0.0,97,0.00,CLR,,0.00,0.0,WeatherDisplay:10.37,2013-10-22 07:08:00,
2013-10-22 03:13:00,54.9,54.1,30.04,SW,228,0.0,0.0,97,0.00,CLR,,0.00,0.0,WeatherDisplay:10.37,2013-10-22 07:13:00,
2013-10-22 03:18:00,55.1,54.3,30.04,SW,228,0.0,0.0,97,0.00,CLR,,0.00,0.0,WeatherDisplay:10.37,2013-10-22 07:18:00,
2013-10-22 03:23:00,55.3,54.7,30.04,SW,228,0.0,0.0,98,0.00,CLR,,0.00,0.0,WeatherDisplay:10.37,2013-10-22 07:23:00,
2013-10-22 03:28:00,55.5,54.9,30.04,SW,228,0.0,0.0,98,0.00,CLR,,0.00,0.0,WeatherDisplay:10.37,2013-10-22 07:28:00,
2013-10-22 03:33:00,55.6,55.0,30.04,SW,228,0.0,0.0,98,0.00,CLR,,0.00,0.0,WeatherDisplay:10.37,2013-10-22 07:33:00,
2013-10-22 03:38:00,55.6,54.8,30.04,SW,228,0.0,0.0,97,0.00,CLR,,0.00,0.0,WeatherDisplay:10.37,2013-10-22 07:38:00,
2013-10-22 03:43:00,55.4,54.6,30.04,SW,228,0.0,0.0,97,0.00,CLR,,0.00,0.0,WeatherDisplay:10.37,2013-10-22 07:43:00,
2013-10-22 03:48:00,55.1,54.3,30.04,SW,228,0.0,0.0,97,0.00,CLR,,0.00,0.0,WeatherDisplay:10.37,2013-10-22 07:48:00,
2013-10-22 03:53:00,54.8,54.0,30.04,SW,228,0.0,0.0,97,0.00,CLR,,0.00,0.0,WeatherDisplay:10.37,2013-10-22 07:53:00,
2013-10-22 03:58:00,54.7,53.9,30.03,SW,228,0.0,0.0,97,0.00,CLR,,0.00,0.0,WeatherDisplay:10.37,2013-10-22 07:58:00,
2013-10-22 04:03:00,54.6,53.8,30.03,SW,228,0.0,0.0,97,0.00,CLR,,0.00,0.0,WeatherDisplay:10.37,2013-10-22 08:03:00,
2013-10-22 04:08:00,54.7,53.9,30.03,SW,228,0.0,0.0,97,0.00,CLR,,0.00,0.0,WeatherDisplay:10.37,2013-10-22 08:08:00,
2013-10-22 04:13:00,54.6,53.8,30.02,SW,228,0.0,0.0,97,0.00,CLR,,0.00,0.0,WeatherDisplay:10.37,2013-10-22 08:13:00,
2013-10-22 04:18:00,54.5,53.7,30.02,SW,228,0.0,0.0,97,0.00,CLR,,0.00,0.0,WeatherDisplay:10.37,2013-10-22 08:18:00,
2013-10-22 04:23:00,54.4,53.6,30.02,SW,228,0.0,0.0,97,0.00,CLR,,0.00,0.0,WeatherDisplay:10.37,2013-10-22 08:23:00,
2013-10-22 04:28:00,54.5,53.7,30.03,SW,228,0.0,0.0,97,0.00,CLR,,0.00,0.0,WeatherDisplay:10.37,2013-10-22 08:28:00,
2013-10-22 04:33:00,54.5,53.7,30.02,SW,228,0.0,0.0,97,0.00,CLR,,0.00,0.0,WeatherDisplay:10.37,2013-10-22 08:33:00,
2013-10-22 04:38:00,54.5,53.7,30.02,SW,228,0.0,0.0,97,0.00,CLR,,0.00,0.0,WeatherDisplay:10.37,2013-10-22 08:38:00,
2013-10-22 04:43:00,54.6,53.8,30.01,SW,228,0.0,0.0,97,0.00,CLR,,0.00,0.0,WeatherDisplay:10.37,2013-10-22 08:43:00,
2013-10-22 04:48:00,54.6,53.8,30.01,SW,228,0.0,0.0,97,0.00,CLR,,0.00,0.0,WeatherDisplay:10.37,2013-10-22 08:48:00,
2013-10-22 04:53:00,54.6,53.8,30.01,SW,228,0.0,0.0,97,0.00,CLR,,0.00,0.0,WeatherDisplay:10.37,2013-10-22 08:53:00,
2013-10-22 04:58:00,54.5,53.7,30.01,SW,228,0.0,0.0,97,0.00,CLR,,0.00,0.0,WeatherDisplay:10.37,2013-10-22 08:58:00,
2013-10-22 05:03:00,54.5,53.7,30.01,SW,228,0.0,0.0,97,0.00,CLR,,0.00,0.0,WeatherDisplay:10.37,2013-10-22 09:03:00,
2013-10-22 05:08:00,54.6,53.8,30.01,SW,228,0.0,0.0,97,0.00,CLR,,0.00,0.0,WeatherDisplay:10.37,2013-10-22 09:08:00,
2013-10-22 05:13:00,54.5,53.7,30.01,SW,228,0.0,0.0,97,0.00,CLR,,0.00,0.0,WeatherDisplay:10.37,2013-10-22 09:13:00,
2013-10-22 05:18:00,54.6,54.0,30.01,SW,228,0.0,0.0,98,0.00,CLR,,0.00,0.0,WeatherDisplay:10.37,2013-10-22 09:18:00,
2013-10-22 05:23:00,54.7,54.1,30.01,SW,228,0.0,0.0,98,0.00,CLR,,0.00,0.0,WeatherDisplay:10.37,2013-10-22 09:23:00,
2013-10-22 05:28:00,54.7,54.1,30.02,SW,228,0.0,0.0,98,0.00,CLR,,0.00,0.0,WeatherDisplay:10.37,2013-10-22 09:28:00,
2013-10-22 05:33:00,54.6,53.8,30.02,SW,228,0.0,0.0,97,0.00,CLR,,0.00,0.0,WeatherDisplay:10.37,2013-10-22 09:33:00,
2013-10-22 05:38:00,54.5,53.7,30.02,SW,228,0.0,0.0,97,0.01,RA,,0.01,0.0,WeatherDisplay:10.37,2013-10-22 09:38:00,
2013-10-22 05:43:00,54.4,53.6,30.02,SW,228,0.0,0.0,97,0.01,RA,,0.01,0.0,WeatherDisplay:10.37,2013-10-22 09:43:00,
2013-10-22 05:48:00,54.3,53.5,30.02,SW,228,0.0,0.0,97,0.01,,,0.01,0.0,WeatherDisplay:10.37,2013-10-22 09:48:00,
2013-10-22 05:53:00,54.3,53.5,30.03,SW,228,0.0,0.0,97,0.01,CLR,,0.01,0.0,WeatherDisplay:10.37,2013-10-22 09:53:00,
2013-10-22 05:58:00,54.3,53.5,30.02,SW,228,0.0,0.0,97,0.01,CLR,,0.01,0.0,WeatherDisplay:10.37,2013-10-22 09:58:00,
2013-10-22 06:03:00,54.3,53.5,30.02,SW,228,0.0,0.0,97,0.01,CLR,,0.01,0.0,WeatherDisplay:10.37,2013-10-22 10:03:00,
2013-10-22 06:08:00,54.3,53.5,30.02,SW,228,0.0,0.0,97,0.01,CLR,,0.01,0.0,WeatherDisplay:10.37,2013-10-22 10:08:00,
2013-10-22 06:13:00,54.4,53.6,30.02,SW,228,0.0,0.0,97,0.01,CLR,,0.01,0.0,WeatherDisplay:10.37,2013-10-22 10:13:00,
2013-10-22 06:18:00,54.4,53.6,30.01,SW,228,0.0,0.0,97,0.01,CLR,,0.01,0.0,WeatherDisplay:10.37,2013-10-22 10:18:00,
2013-10-22 06:23:00,54.5,53.9,30.01,SW,228,0.0,0.0,98,0.01,CLR,,0.01,0.0,WeatherDisplay:10.37,2013-10-22 10:23:00,
2013-10-22 06:28:00,54.5,53.9,30.02,SW,228,0.0,0.0,98,0.01,CLR,,0.01,0.0,WeatherDisplay:10.37,2013-10-22 10:28:00,
2013-10-22 06:33:00,54.6,54.0,30.01,SW,228,0.0,0.0,98,0.01,CLR,,0.01,0.0,WeatherDisplay:10.37,2013-10-22 10:33:00,
2013-10-22 06:38:00,54.5,53.7,30.01,SW,228,0.0,0.0,97,0.00,CLR,,0.01,0.0,WeatherDisplay:10.37,2013-10-22 10:38:00,
2013-10-22 06:43:00,54.5,53.9,30.00,SW,228,0.0,0.0,98,0.00,CLR,,0.01,0.0,WeatherDisplay:10.37,2013-10-22 10:43:00,
2013-10-22 06:48:00,54.5,53.9,30.00,SW,228,0.0,0.0,98,0.00,CLR,,0.01,0.0,WeatherDisplay:10.37,2013-10-22 10:48:00,
2013-10-22 06:53:00,54.5,53.7,30.01,SW,228,0.0,0.0,97,0.00,CLR,,0.01,0.0,WeatherDisplay:10.37,2013-10-22 10:53:00,
2013-10-22 06:58:00,54.3,53.5,30.00,SW,228,0.0,0.0,97,0.00,CLR,,0.01,0.0,WeatherDisplay:10.37,2013-10-22 10:58:00,
2013-10-22 07:03:00,54.2,53.4,30.01,SW,228,0.0,0.0,97,0.00,CLR,,0.01,0.0,WeatherDisplay:10.37,2013-10-22 11:03:00,
2013-10-22 07:08:00,54.0,53.2,30.01,SW,228,0.0,0.0,97,0.00,CLR,,0.01,0.0,WeatherDisplay:10.37,2013-10-22 11:08:00,
2013-10-22 07:13:00,53.9,53.1,30.01,SW,228,0.0,0.0,97,0.00,CLR,,0.01,0.0,WeatherDisplay:10.37,2013-10-22 11:13:00,
2013-10-22 07:18:00,53.9,53.1,30.00,SW,228,0.0,0.0,97,0.00,CLR,,0.01,0.0,WeatherDisplay:10.37,2013-10-22 11:18:00,
2013-10-22 07:23:00,53.9,53.1,30.01,SW,228,0.0,0.0,97,0.00,CLR,,0.01,0.0,WeatherDisplay:10.37,2013-10-22 11:23:00,
2013-10-22 07:28:00,54.0,53.4,30.01,SW,228,0.0,0.0,98,0.00,CLR,,0.01,0.0,WeatherDisplay:10.37,2013-10-22 11:28:00,
2013-10-22 07:33:00,53.9,53.1,30.01,SW,228,0.0,0.0,97,0.00,CLR,,0.01,0.0,WeatherDisplay:10.37,2013-10-22 11:33:00,
2013-10-22 07:38:00,53.8,53.0,30.02,SW,228,0.0,0.0,97,0.00,CLR,,0.01,0.0,WeatherDisplay:10.37,2013-10-22 11:38:00,
2013-10-22 07:43:00,53.6,52.8,30.03,SW,228,0.0,0.0,97,0.00,CLR,,0.01,0.0,WeatherDisplay:10.37,2013-10-22 11:43:00,
2013-10-22 07:48:00,53.5,52.7,30.03,SW,228,0.0,0.0,97,0.00,CLR,,0.01,0.0,WeatherDisplay:10.37,2013-10-22 11:48:00,
2013-10-22 07:53:00,53.5,52.7,30.03,SW,228,0.0,0.0,97,0.00,CLR,,0.01,0.0,WeatherDisplay:10.37,2013-10-22 11:53:00,
2013-10-22 07:58:00,53.5,52.9,30.02,SW,228,1.0,0.0,98,0.00,CLR,,0.01,5.0,WeatherDisplay:10.37,2013-10-22 11:58:00,
2013-10-22 08:03:00,53.6,53.0,30.02,SW,228,2.3,2.3,98,0.00,CLR,,0.01,0.0,WeatherDisplay:10.37,2013-10-22 12:03:00,
2013-10-22 08:08:00,53.7,53.1,30.03,SW,228,0.0,0.0,98,0.00,CLR,,0.01,11.0,WeatherDisplay:10.37,2013-10-22 12:08:00,
2013-10-22 08:13:00,53.6,53.0,30.02,SW,228,0.0,0.0,98,0.00,CLR,,0.01,18.0,WeatherDisplay:10.37,2013-10-22 12:13:00,
2013-10-22 08:18:00,53.5,52.9,30.02,SW,228,0.0,0.0,98,0.00,CLR,,0.01,26.0,WeatherDisplay:10.37,2013-10-22 12:18:00,
2013-10-22 08:23:00,53.5,52.9,30.02,SW,228,0.0,0.0,98,0.00,CLR,,0.01,32.0,WeatherDisplay:10.37,2013-10-22 12:23:00,
2013-10-22 08:28:00,53.6,53.0,30.02,SW,228,0.0,0.0,98,0.00,CLR,,0.01,37.0,WeatherDisplay:10.37,2013-10-22 12:28:00,
2013-10-22 08:33:00,53.7,53.1,30.02,SW,228,0.0,0.0,98,0.00,CLR,,0.01,39.0,WeatherDisplay:10.37,2013-10-22 12:33:00,
2013-10-22 08:38:00,53.9,53.3,30.02,SW,228,0.0,0.0,98,0.00,CLR,,0.01,35.0,WeatherDisplay:10.37,2013-10-22 12:38:00,
2013-10-22 08:43:00,54.0,53.4,30.02,SW,228,0.0,0.0,98,0.00,CLR,,0.01,33.0,WeatherDisplay:10.37,2013-10-22 12:43:00,
2013-10-22 08:48:00,54.1,53.5,30.02,SW,228,0.0,0.0,98,0.00,CLR,,0.01,39.0,WeatherDisplay:10.37,2013-10-22 12:48:00,
2013-10-22 08:53:00,54.3,53.7,30.02,SW,228,0.0,0.0,98,0.00,CLR,,0.01,35.0,WeatherDisplay:10.37,2013-10-22 12:53:00,
2013-10-22 08:58:00,54.4,53.8,30.02,SW,228,0.0,0.0,98,0.00,CLR,,0.01,26.0,WeatherDisplay:10.37,2013-10-22 12:58:00,
2013-10-22 09:03:00,54.3,53.7,30.02,SW,228,0.0,0.0,98,0.00,OVC,,0.01,18.0,WeatherDisplay:10.37,2013-10-22 13:03:00,
2013-10-22 09:08:00,54.3,53.7,30.02,SW,228,0.0,0.0,98,0.00,OVC,,0.01,35.0,WeatherDisplay:10.37,2013-10-22 13:08:00,
2013-10-22 09:13:00,54.3,53.7,30.02,SW,228,0.0,0.0,98,0.00,OVC,,0.01,62.0,WeatherDisplay:10.37,2013-10-22 13:13:00,
2013-10-22 09:18:00,54.4,53.8,30.02,SW,228,0.0,0.0,98,0.00,OVC,,0.01,53.0,WeatherDisplay:10.37,2013-10-22 13:18:00,
2013-10-22 09:23:00,54.4,53.8,30.02,SW,228,0.0,0.0,98,0.00,OVC,,0.01,54.0,WeatherDisplay:10.37,2013-10-22 13:23:00,
2013-10-22 09:28:00,54.6,54.0,30.02,SW,228,0.0,0.0,98,0.00,OVC,,0.01,70.0,WeatherDisplay:10.37,2013-10-22 13:28:00,
2013-10-22 09:33:00,54.7,54.1,30.02,SW,228,0.0,0.0,98,0.00,OVC,,0.01,74.0,WeatherDisplay:10.37,2013-10-22 13:33:00,
2013-10-22 09:38:00,54.8,54.2,30.02,SW,228,0.0,0.0,98,0.00,OVC,,0.01,65.0,WeatherDisplay:10.37,2013-10-22 13:38:00,
2013-10-22 09:43:00,54.9,54.3,30.02,SW,228,0.0,0.0,98,0.00,OVC,,0.01,53.0,WeatherDisplay:10.37,2013-10-22 13:43:00,
2013-10-22 09:48:00,55.0,54.4,30.02,SW,228,0.0,0.0,98,0.00,OVC,,0.01,74.0,WeatherDisplay:10.37,2013-10-22 13:48:00,
2013-10-22 09:53:00,55.1,54.5,30.02,SW,228,0.0,0.0,98,0.00,OVC,,0.01,81.0,WeatherDisplay:10.37,2013-10-22 13:53:00,
2013-10-22 09:58:00,55.3,54.7,30.02,SW,228,0.0,0.0,98,0.00,OVC,,0.01,116.0,WeatherDisplay:10.37,2013-10-22 13:58:00,
2013-10-22 10:03:00,55.6,55.0,30.02,SW,228,0.0,0.0,98,0.00,OVC,,0.01,156.0,WeatherDisplay:10.37,2013-10-22 14:03:00,
2013-10-22 10:08:00,55.9,55.3,30.02,SW,228,0.0,0.0,98,0.00,OVC,,0.01,190.0,WeatherDisplay:10.37,2013-10-22 14:08:00,
2013-10-22 10:13:00,55.9,55.3,30.01,SW,228,0.0,0.0,98,0.00,OVC,,0.01,151.0,WeatherDisplay:10.37,2013-10-22 14:13:00,
2013-10-22 10:18:00,56.2,55.6,30.02,SW,228,0.0,0.0,98,0.00,OVC,,0.01,151.0,WeatherDisplay:10.37,2013-10-22 14:18:00,
2013-10-22 10:23:00,56.3,55.7,30.01,SW,228,0.0,0.0,98,0.00,OVC,,0.01,113.0,WeatherDisplay:10.37,2013-10-22 14:23:00,
2013-10-22 10:28:00,56.6,56.0,30.01,SW,228,0.0,0.0,98,0.00,OVC,,0.01,111.0,WeatherDisplay:10.37,2013-10-22 14:28:00,
2013-10-22 10:33:00,56.8,56.2,30.00,SW,228,0.0,0.0,98,0.00,OVC,,0.01,141.0,WeatherDisplay:10.37,2013-10-22 14:33:00,
2013-10-22 10:38:00,56.9,56.1,30.00,SW,228,0.0,0.0,97,0.00,OVC,,0.01,193.0,WeatherDisplay:10.37,2013-10-22 14:38:00,
2013-10-22 10:43:00,57.1,56.3,30.00,SW,228,0.0,0.0,97,0.00,OVC,,0.01,230.0,WeatherDisplay:10.37,2013-10-22 14:43:00,
2013-10-22 10:48:00,57.0,54.1,30.00,SW,228,0.0,0.0,90,0.00,OVC,,0.01,218.0,WeatherDisplay:10.37,2013-10-22 14:48:00,
2013-10-22 10:53:00,57.3,54.1,29.99,SW,228,0.0,0.0,89,0.00,OVC,,0.01,214.0,WeatherDisplay:10.37,2013-10-22 14:53:00,
2013-10-22 10:58:00,57.7,54.2,30.00,SW,228,0.0,0.0,88,0.00,OVC,,0.01,265.0,WeatherDisplay:10.37,2013-10-22 14:58:00,
2013-10-22 11:03:00,58.2,54.0,29.99,SW,228,0.0,0.0,86,0.00,OVC,,0.01,615.0,WeatherDisplay:10.37,2013-10-22 15:03:00,
2013-10-22 11:08:00,58.6,53.5,29.99,SW,228,0.0,0.0,83,0.00,OVC,,0.01,499.0,WeatherDisplay:10.37,2013-10-22 15:08:00,
2013-10-22 11:13:00,59.3,53.8,29.99,SW,228,0.0,0.0,82,0.00,OVC,,0.01,258.0,WeatherDisplay:10.37,2013-10-22 15:13:00,
2013-10-22 11:18:00,59.8,54.6,29.99,SW,228,1.2,0.0,83,0.00,OVC,,0.01,265.0,WeatherDisplay:10.37,2013-10-22 15:18:00,
2013-10-22 11:23:00,60.4,54.2,29.98,SW,228,0.0,0.0,80,0.00,OVC,,0.01,297.0,WeatherDisplay:10.37,2013-10-22 15:23:00,
2013-10-22 11:28:00,60.8,54.6,29.98,SW,228,0.0,0.3,80,0.00,OVC,,0.01,236.0,WeatherDisplay:10.37,2013-10-22 15:28:00,
2013-10-22 11:33:00,61.2,54.3,29.98,SW,232,3.0,3.0,78,0.00,OVC,,0.01,246.0,WeatherDisplay:10.37,2013-10-22 15:33:00,
2013-10-22 11:38:00,61.4,54.5,29.98,SW,232,2.0,2.0,78,0.00,OVC,,0.01,246.0,WeatherDisplay:10.37,2013-10-22 15:38:00,
2013-10-22 11:43:00,61.6,53.6,29.97,SW,232,3.5,3.5,75,0.00,OVC,,0.01,302.0,WeatherDisplay:10.37,2013-10-22 15:43:00,
2013-10-22 11:48:00,62.3,56.0,29.97,SW,232,1.0,1.0,80,0.00,OVC,,0.01,867.0,WeatherDisplay:10.37,2013-10-22 15:48:00,
2013-10-22 11:53:00,62.9,53.7,29.97,WSW,250,10.0,10.0,72,0.00,OVC,,0.01,341.0,WeatherDisplay:10.37,2013-10-22 15:53:00,
2013-10-22 11:58:00,63.1,53.2,29.97,WSW,257,11.5,11.5,70,0.00,OVC,,0.01,306.0,WeatherDisplay:10.37,2013-10-22 15:58:00,
2013-10-22 12:03:00,63.3,54.1,29.98,WSW,257,5.8,5.8,72,0.00,OVC,,0.01,352.0,WeatherDisplay:10.37,2013-10-22 16:03:00,
2013-10-22 12:08:00,63.5,51.5,29.97,West,259,6.9,6.9,65,0.00,OVC,,0.01,422.0,WeatherDisplay:10.37,2013-10-22 16:08:00,
2013-10-22 12:13:00,63.7,52.1,29.97,West,263,5.8,5.8,66,0.00,OVC,,0.01,230.0,WeatherDisplay:10.37,2013-10-22 16:13:00,
2013-10-22 12:18:00,63.7,49.5,29.97,West,263,9.2,9.2,60,0.00,OVC,,0.01,295.0,WeatherDisplay:10.37,2013-10-22 16:18:00,
2013-10-22 12:23:00,63.5,49.8,29.96,West,279,11.5,11.5,61,0.00,OVC,,0.01,214.0,WeatherDisplay:10.37,2013-10-22 16:23:00,
2013-10-22 12:28:00,63.3,50.5,29.96,West,278,4.6,4.6,63,0.00,OVC,,0.01,211.0,WeatherDisplay:10.37,2013-10-22 16:28:00,
2013-10-22 12:33:00,63.2,50.4,29.96,West,279,9.0,9.0,63,0.00,OVC,,0.01,276.0,WeatherDisplay:10.37,2013-10-22 16:33:00,
2013-10-22 12:38:00,63.5,51.1,29.96,West,278,10.4,10.4,64,0.00,OVC,,0.01,306.0,WeatherDisplay:10.37,2013-10-22 16:38:00,
2013-10-22 12:43:00,64.0,51.1,29.95,West,279,3.5,3.5,63,0.00,OVC,,0.01,499.0,WeatherDisplay:10.37,2013-10-22 16:43:00,
2013-10-22 12:48:00,64.8,51.9,29.95,West,274,8.0,8.0,63,0.00,CLR,,0.01,740.0,WeatherDisplay:10.37,2013-10-22 16:48:00,
2013-10-22 12:53:00,65.7,52.3,29.95,West,272,9.2,9.2,62,0.00,CLR,,0.01,758.0,WeatherDisplay:10.37,2013-10-22 16:53:00,
2013-10-22 12:58:00,65.9,52.5,29.95,West,263,12.7,12.7,62,0.00,CLR,,0.01,390.0,WeatherDisplay:10.37,2013-10-22 16:58:00,
2013-10-22 13:03:00,66.4,51.2,29.95,NW,309,9.2,9.2,58,0.00,CLR,,0.01,889.0,WeatherDisplay:10.37,2013-10-22 17:03:00,
2013-10-22 13:08:00,66.8,49.6,29.95,West,281,13.8,13.8,54,0.00,CLR,,0.01,649.0,WeatherDisplay:10.37,2013-10-22 17:08:00,
2013-10-22 13:13:00,66.8,51.5,29.95,WNW,286,25.3,25.3,58,0.00,CLR,,0.01,761.0,WeatherDisplay:10.37,2013-10-22 17:13:00,
2013-10-22 13:18:00,66.7,51.5,29.94,West,276,9.2,9.2,58,0.00,CLR,,0.01,721.0,WeatherDisplay:10.37,2013-10-22 17:18:00,
2013-10-22 13:23:00,67.2,49.5,29.94,NNW,347,6.9,6.9,53,0.00,CLR,,0.01,691.0,WeatherDisplay:10.37,2013-10-22 17:23:00,
2013-10-22 13:28:00,67.4,50.7,29.93,WNW,297,11.5,11.5,55,0.00,CLR,,0.01,693.0,WeatherDisplay:10.37,2013-10-22 17:28:00,
2013-10-22 13:33:00,67.4,49.7,29.93,NW,313,3.0,3.0,53,0.00,CLR,,0.01,689.0,WeatherDisplay:10.37,2013-10-22 17:33:00,
2013-10-22 13:38:00,67.7,50.9,29.93,WSW,241,10.4,10.4,55,0.00,CLR,,0.01,694.0,WeatherDisplay:10.37,2013-10-22 17:38:00,
2013-10-22 13:43:00,67.9,51.1,29.92,West,273,6.9,6.9,55,0.00,CLR,,0.01,613.0,WeatherDisplay:10.37,2013-10-22 17:43:00,
2013-10-22 13:48:00,68.3,52.0,29.92,WNW,284,0.0,0.0,56,0.00,CLR,,0.01,793.0,WeatherDisplay:10.37,2013-10-22 17:48:00,
2013-10-22 13:53:00,68.6,50.8,29.91,WSW,254,17.3,17.3,53,0.00,CLR,,0.01,733.0,WeatherDisplay:10.37,2013-10-22 17:53:00,
2013-10-22 13:58:00,69.0,50.6,29.91,SW,233,13.8,13.8,52,0.00,CLR,,0.01,925.0,WeatherDisplay:10.37,2013-10-22 17:58:00,
2013-10-22 14:03:00,69.4,51.0,29.90,WSW,242,11.5,11.5,52,0.00,CLR,,0.01,803.0,WeatherDisplay:10.37,2013-10-22 18:03:00,
2013-10-22 14:08:00,69.6,51.2,29.90,SW,236,16.1,16.1,52,0.00,CLR,,0.01,807.0,WeatherDisplay:10.37,2013-10-22 18:08:00,
2013-10-22 14:13:00,69.8,51.4,29.90,WSW,256,8.1,8.1,52,0.00,CLR,,0.01,960.0,WeatherDisplay:10.37,2013-10-22 18:13:00,
2013-10-22 14:18:00,70.5,52.5,29.90,NW,316,0.0,0.0,53,0.00,CLR,,0.01,863.0,WeatherDisplay:10.37,2013-10-22 18:18:00,
2013-10-22 14:23:00,70.6,53.1,29.90,WNW,287,11.5,11.5,54,0.00,CLR,,0.01,373.0,WeatherDisplay:10.37,2013-10-22 18:23:00,
2013-10-22 14:28:00,69.7,50.2,29.90,WNW,296,0.0,0.0,50,0.00,CLR,,0.01,338.0,WeatherDisplay:10.37,2013-10-22 18:28:00,
2013-10-22 14:33:00,68.9,50.0,29.90,WSW,247,0.0,0.0,51,0.00,CLR,,0.01,290.0,WeatherDisplay:10.37,2013-10-22 18:33:00,
2013-10-22 14:38:00,68.2,49.9,29.90,WNW,289,14.0,14.0,52,0.00,CLR,,0.01,274.0,WeatherDisplay:10.37,2013-10-22 18:38:00,
2013-10-22 14:43:00,67.8,50.0,29.90,WNW,293,6.9,6.9,53,0.00,CLR,,0.01,302.0,WeatherDisplay:10.37,2013-10-22 18:43:00,
2013-10-22 14:48:00,67.4,49.7,29.89,NW,312,9.2,9.2,53,0.00,CLR,,0.01,325.0,WeatherDisplay:10.37,2013-10-22 18:48:00,
2013-10-22 14:53:00,67.3,49.1,29.89,West,273,6.9,0.0,52,0.00,CLR,,0.01,362.0,WeatherDisplay:10.37,2013-10-22 18:53:00,
2013-10-22 14:58:00,67.1,49.9,29.89,WNW,283,6.9,6.9,54,0.00,CLR,,0.01,357.0,WeatherDisplay:10.37,2013-10-22 18:58:00,
2013-10-22 15:03:00,67.3,49.6,29.89,West,267,9.2,9.2,53,0.00,CLR,,0.01,339.0,WeatherDisplay:10.37,2013-10-22 19:03:00,
2013-10-22 15:08:00,67.3,49.6,29.89,West,260,0.0,0.0,53,0.00,FEW,,0.01,364.0,WeatherDisplay:10.37,2013-10-22 19:08:00,
2013-10-22 15:13:00,67.3,49.6,29.89,WNW,288,12.7,12.7,53,0.00,FEW,,0.01,311.0,WeatherDisplay:10.37,2013-10-22 19:13:00,
2013-10-22 15:18:00,67.2,50.5,29.89,West,271,9.2,9.2,55,0.00,SCT,,0.01,285.0,WeatherDisplay:10.37,2013-10-22 19:18:00,
2013-10-22 15:23:00,66.9,50.7,29.89,WSW,253,0.0,0.0,56,0.00,SCT,,0.01,248.0,WeatherDisplay:10.37,2013-10-22 19:23:00,
2013-10-22 15:28:00,66.8,48.6,29.89,WNW,289,0.0,0.0,52,0.00,SCT,,0.01,241.0,WeatherDisplay:10.37,2013-10-22 19:28:00,
2013-10-22 15:33:00,66.8,48.6,29.89,WNW,292,7.0,7.0,52,0.00,SCT,,0.01,290.0,WeatherDisplay:10.37,2013-10-22 19:33:00,
2013-10-22 15:38:00,66.8,48.6,29.88,West,278,10.4,10.4,52,0.00,SCT,,0.01,257.0,WeatherDisplay:10.37,2013-10-22 19:38:00,
2013-10-22 15:43:00,66.7,49.5,29.88,WNW,297,6.9,6.9,54,0.00,SCT,,0.01,244.0,WeatherDisplay:10.37,2013-10-22 19:43:00,
2013-10-22 15:48:00,66.5,51.3,29.88,WNW,296,4.6,0.0,58,0.00,BKN,,0.01,251.0,WeatherDisplay:10.37,2013-10-22 19:48:00,
2013-10-22 15:53:00,66.4,50.2,29.88,WNW,283,0.0,0.0,56,0.00,BKN,,0.01,260.0,WeatherDisplay:10.37,2013-10-22 19:53:00,
2013-10-22 15:58:00,66.6,50.4,29.88,WNW,285,0.0,0.0,56,0.00,CLR,,0.01,686.0,WeatherDisplay:10.37,2013-10-22 19:58:00,
2013-10-22 16:03:00,67.2,51.4,29.88,WNW,285,0.0,0.0,57,0.00,CLR,,0.01,598.0,WeatherDisplay:10.37,2013-10-22 20:03:00,
2013-10-22 16:08:00,67.5,52.2,29.88,West,273,0.0,0.0,58,0.00,BKN,,0.01,255.0,WeatherDisplay:10.37,2013-10-22 20:08:00,
2013-10-22 16:13:00,67.4,52.6,29.88,West,273,0.0,0.0,59,0.00,BKN,,0.01,213.0,WeatherDisplay:10.37,2013-10-22 20:13:00,
2013-10-22 16:18:00,67.3,52.9,29.88,West,274,0.0,0.0,60,0.00,BKN,,0.01,195.0,WeatherDisplay:10.37,2013-10-22 20:18:00,
2013-10-22 16:23:00,67.1,52.3,29.88,WNW,294,0.0,0.0,59,0.00,SCT,,0.01,338.0,WeatherDisplay:10.37,2013-10-22 20:23:00,
2013-10-22 16:28:00,67.4,53.0,29.88,WSW,251,0.0,0.0,60,0.00,FEW,,0.01,466.0,WeatherDisplay:10.37,2013-10-22 20:28:00,
2013-10-22 16:33:00,67.7,52.9,29.88,WSW,248,0.0,0.0,59,0.00,SCT,,0.01,438.0,WeatherDisplay:10.37,2013-10-22 20:33:00,
2013-10-22 16:38:00,68.2,52.9,29.87,WSW,254,0.0,0.0,58,0.00,SCT,,0.01,422.0,WeatherDisplay:10.37,2013-10-22 20:38:00,
2013-10-22 16:43:00,68.5,53.1,29.87,WSW,242,0.0,0.0,58,0.00,SCT,,0.01,410.0,WeatherDisplay:10.37,2013-10-22 20:43:00,
2013-10-22 16:48:00,67.9,53.0,29.87,WSW,241,0.0,0.0,59,0.00,BKN,,0.01,132.0,WeatherDisplay:10.37,2013-10-22 20:48:00,
2013-10-22 16:53:00,67.3,53.4,29.87,WSW,245,0.0,0.0,61,0.00,BKN,,0.01,206.0,WeatherDisplay:10.37,2013-10-22 20:53:00,
2013-10-22 16:58:00,67.4,53.5,29.87,West,274,0.0,0.0,61,0.00,SCT,,0.01,396.0,WeatherDisplay:10.37,2013-10-22 20:58:00,
2013-10-22 17:03:00,67.8,53.4,29.87,West,278,0.0,0.0,60,0.00,SCT,,0.01,399.0,WeatherDisplay:10.37,2013-10-22 21:03:00,
2013-10-22 17:08:00,68.0,52.7,29.87,WNW,299,0.0,0.0,58,0.00,BKN,,0.01,243.0,WeatherDisplay:10.37,2013-10-22 21:08:00,
2013-10-22 17:13:00,67.8,52.5,29.87,WNW,290,0.0,0.0,58,0.00,BKN,,0.01,79.0,WeatherDisplay:10.37,2013-10-22 21:13:00,
2013-10-22 17:18:00,67.3,52.0,29.87,WNW,291,0.0,0.0,58,0.00,BKN,,0.01,84.0,WeatherDisplay:10.37,2013-10-22 21:18:00,
2013-10-22 17:23:00,66.6,51.8,29.87,NW,305,0.0,0.0,59,0.00,BKN,,0.01,91.0,WeatherDisplay:10.37,2013-10-22 21:23:00,
2013-10-22 17:28:00,66.0,52.2,29.87,WNW,284,0.0,0.0,61,0.00,BKN,,0.01,98.0,WeatherDisplay:10.37,2013-10-22 21:28:00,
2013-10-22 17:33:00,65.6,52.7,29.87,WNW,285,0.0,0.0,63,0.00,BKN,,0.01,95.0,WeatherDisplay:10.37,2013-10-22 21:33:00,
2013-10-22 17:38:00,65.3,52.4,29.87,WNW,285,0.0,0.0,63,0.00,BKN,,0.01,98.0,WeatherDisplay:10.37,2013-10-22 21:38:00,
2013-10-22 17:43:00,65.4,53.7,29.87,WNW,285,0.0,0.0,66,0.00,BKN,,0.01,232.0,WeatherDisplay:10.37,2013-10-22 21:43:00,
2013-10-22 17:48:00,65.7,52.8,29.87,NW,311,0.0,0.0,63,0.00,BKN,,0.01,220.0,WeatherDisplay:10.37,2013-10-22 21:48:00,
2013-10-22 17:53:00,66.0,53.5,29.87,West,281,0.0,0.0,64,0.00,BKN,,0.01,188.0,WeatherDisplay:10.37,2013-10-22 21:53:00,
2013-10-22 17:58:00,66.2,53.2,29.87,WNW,285,0.0,0.0,63,0.00,BKN,,0.01,105.0,WeatherDisplay:10.37,2013-10-22 21:58:00,
2013-10-22 18:03:00,65.7,52.8,29.87,West,268,0.0,0.0,63,0.00,BKN,,0.01,121.0,WeatherDisplay:10.37,2013-10-22 22:03:00,
2013-10-22 18:08:00,65.1,52.2,29.87,West,281,0.0,0.0,63,0.00,BKN,,0.01,39.0,WeatherDisplay:10.37,2013-10-22 22:08:00,
2013-10-22 18:13:00,64.5,52.0,29.88,WNW,292,0.0,0.0,64,0.00,BKN,,0.01,44.0,WeatherDisplay:10.37,2013-10-22 22:13:00,
2013-10-22 18:18:00,64.1,51.7,29.87,WNW,289,0.0,0.0,64,0.00,BKN,,0.01,81.0,WeatherDisplay:10.37,2013-10-22 22:18:00,
2013-10-22 18:23:00,63.9,52.3,29.87,West,278,0.0,0.0,66,0.00,BKN,,0.01,62.0,WeatherDisplay:10.37,2013-10-22 22:23:00,
2013-10-22 18:28:00,63.7,52.1,29.87,West,279,0.0,0.0,66,0.00,CLR,,0.01,30.0,WeatherDisplay:10.37,2013-10-22 22:28:00,
2013-10-22 18:33:00,63.3,52.2,29.87,West,280,0.0,0.0,67,0.00,CLR,,0.01,18.0,WeatherDisplay:10.37,2013-10-22 22:33:00,
2013-10-22 18:38:00,62.8,52.1,29.87,West,280,0.0,0.0,68,0.00,CLR,,0.01,19.0,WeatherDisplay:10.37,2013-10-22 22:38:00,
2013-10-22 18:43:00,62.4,52.1,29.87,West,280,0.0,0.0,69,0.00,CLR,,0.01,12.0,WeatherDisplay:10.37,2013-10-22 22:43:00,
2013-10-22 18:48:00,62.0,52.1,29.87,West,280,0.0,0.0,70,0.00,CLR,,0.01,7.0,WeatherDisplay:10.37,2013-10-22 22:48:00,
2013-10-22 18:53:00,61.7,52.2,29.87,West,280,0.0,0.0,71,0.00,CLR,,0.01,0.0,WeatherDisplay:10.37,2013-10-22 22:53:00,
2013-10-22 18:59:00,61.3,52.6,29.87,West,280,0.0,0.0,73,0.00,CLR,,0.01,0.0,WeatherDisplay:10.37,2013-10-22 22:59:00,
2013-10-22 19:04:00,60.9,52.9,29.87,West,280,0.0,0.0,75,0.00,CLR,,0.01,0.0,WeatherDisplay:10.37,2013-10-22 23:04:00,
2013-10-22 19:09:00,60.5,52.5,29.87,West,280,0.0,0.0,75,0.00,CLR,,0.01,0.0,WeatherDisplay:10.37,2013-10-22 23:09:00,
2013-10-22 19:14:00,60.2,53.0,29.87,West,280,0.0,0.0,77,0.00,CLR,,0.01,0.0,WeatherDisplay:10.37,2013-10-22 23:14:00,
2013-10-22 19:19:00,59.8,52.9,29.87,West,280,0.0,0.0,78,0.00,CLR,,0.01,0.0,WeatherDisplay:10.37,2013-10-22 23:19:00,
2013-10-22 19:24:00,59.5,53.0,29.87,West,280,0.0,0.0,79,0.00,CLR,,0.01,0.0,WeatherDisplay:10.37,2013-10-22 23:24:00,
2013-10-22 19:29:00,59.1,52.9,29.87,West,280,0.0,0.0,80,0.00,CLR,,0.01,0.0,WeatherDisplay:10.37,2013-10-22 23:29:00,
2013-10-22 19:34:00,58.7,52.9,29.87,West,280,0.0,0.0,81,0.00,CLR,,0.01,0.0,WeatherDisplay:10.37,2013-10-22 23:34:00,
2013-10-22 19:39:00,58.3,52.8,29.87,West,280,0.0,0.0,82,0.00,CLR,,0.01,0.0,WeatherDisplay:10.37,2013-10-22 23:39:00,
2013-10-22 19:44:00,57.9,52.8,29.87,West,280,0.0,0.0,83,0.00,CLR,,0.01,0.0,WeatherDisplay:10.37,2013-10-22 23:44:00,
2013-10-22 19:49:00,57.6,52.8,29.88,West,280,0.0,0.0,84,0.00,CLR,,0.01,0.0,WeatherDisplay:10.37,2013-10-22 23:49:00,
2013-10-22 19:54:00,57.3,52.5,29.88,West,280,0.0,0.0,84,0.00,CLR,,0.01,0.0,WeatherDisplay:10.37,2013-10-22 23:54:00,
2013-10-22 19:59:00,57.1,52.3,29.88,West,281,0.0,0.0,84,0.00,CLR,,0.01,0.0,WeatherDisplay:10.37,2013-10-22 23:59:00,
2013-10-22 20:04:00,56.8,52.0,29.88,West,281,0.0,0.0,84,0.00,CLR,,0.01,0.0,WeatherDisplay:10.37,2013-10-23 00:04:00,
2013-10-22 20:09:00,56.7,51.9,29.88,West,281,0.0,0.0,84,0.00,CLR,,0.01,0.0,WeatherDisplay:10.37,2013-10-23 00:09:00,
2013-10-22 20:14:00,56.4,51.9,29.88,West,281,0.0,0.0,85,0.00,CLR,,0.01,0.0,WeatherDisplay:10.37,2013-10-23 00:14:00,
2013-10-22 20:19:00,56.3,51.8,29.88,WNW,282,0.0,0.0,85,0.00,CLR,,0.01,0.0,WeatherDisplay:10.37,2013-10-23 00:19:00,
2013-10-22 20:24:00,56.3,51.5,29.88,WNW,284,0.0,0.0,84,0.00,CLR,,0.01,0.0,WeatherDisplay:10.37,2013-10-23 00:24:00,
2013-10-22 20:29:00,56.4,51.6,29.88,WNW,284,0.0,0.0,84,0.00,CLR,,0.01,0.0,WeatherDisplay:10.37,2013-10-23 00:29:00,
2013-10-22 20:34:00,56.6,51.5,29.88,WNW,288,0.0,0.0,83,0.00,CLR,,0.01,0.0,WeatherDisplay:10.37,2013-10-23 00:34:00,
2013-10-22 20:39:00,56.7,51.6,29.88,WNW,288,0.0,0.0,83,0.00,CLR,,0.01,0.0,WeatherDisplay:10.37,2013-10-23 00:39:00,
2013-10-22 20:44:00,56.9,51.5,29.88,WNW,288,0.0,0.0,82,0.00,CLR,,0.01,0.0,WeatherDisplay:10.37,2013-10-23 00:44:00,
2013-10-22 20:49:00,57.0,51.2,29.88,WNW,288,0.0,0.0,81,0.00,CLR,,0.01,0.0,WeatherDisplay:10.37,2013-10-23 00:49:00,
2013-10-22 20:54:00,57.1,51.0,29.88,WNW,288,0.0,0.0,80,0.00,CLR,,0.01,0.0,WeatherDisplay:10.37,2013-10-23 00:54:00,
2013-10-22 20:59:00,57.1,51.0,29.88,WNW,288,0.0,0.0,80,0.00,CLR,,0.01,0.0,WeatherDisplay:10.37,2013-10-23 00:59:00,
2013-10-22 21:04:00,57.1,50.6,29.88,WNW,288,0.0,0.0,79,0.00,CLR,,0.01,0.0,WeatherDisplay:10.37,2013-10-23 01:04:00,
2013-10-22 21:09:00,57.0,50.5,29.88,WNW,288,0.0,0.0,79,0.00,CLR,,0.01,0.0,WeatherDisplay:10.37,2013-10-23 01:09:00,
2013-10-22 21:14:00,56.9,50.5,29.88,WNW,288,0.0,0.0,79,0.00,CLR,,0.01,0.0,WeatherDisplay:10.37,2013-10-23 01:14:00,
2013-10-22 21:19:00,56.8,50.7,29.88,WNW,288,0.0,0.0,80,0.00,CLR,,0.01,0.0,WeatherDisplay:10.37,2013-10-23 01:19:00,
2013-10-22 21:24:00,56.5,50.4,29.88,WNW,288,0.0,0.0,80,0.00,CLR,,0.01,0.0,WeatherDisplay:10.37,2013-10-23 01:24:00,
2013-10-22 21:29:00,56.3,50.2,29.88,WNW,288,0.0,0.0,80,0.00,CLR,,0.01,0.0,WeatherDisplay:10.37,2013-10-23 01:29:00,
2013-10-22 21:34:00,56.1,50.0,29.88,WNW,288,0.0,0.0,80,0.00,CLR,,0.01,0.0,WeatherDisplay:10.37,2013-10-23 01:34:00,
2013-10-22 21:39:00,56.1,50.0,29.88,WNW,289,0.0,0.0,80,0.00,CLR,,0.01,0.0,WeatherDisplay:10.37,2013-10-23 01:39:00,
2013-10-22 21:44:00,56.0,49.9,29.88,WNW,289,0.0,0.0,80,0.00,CLR,,0.01,0.0,WeatherDisplay:10.37,2013-10-23 01:44:00,
2013-10-22 21:49:00,55.9,50.2,29.88,WNW,289,0.0,0.0,81,0.00,CLR,,0.01,0.0,WeatherDisplay:10.37,2013-10-23 01:49:00,
2013-10-22 21:54:00,55.8,50.1,29.88,WNW,288,0.0,0.0,81,0.00,CLR,,0.01,0.0,WeatherDisplay:10.37,2013-10-23 01:54:00,
2013-10-22 21:59:00,55.7,50.0,29.88,WNW,288,0.0,0.0,81,0.00,CLR,,0.01,0.0,WeatherDisplay:10.37,2013-10-23 01:59:00,
2013-10-22 22:04:00,55.5,49.8,29.88,West,279,0.0,0.0,81,0.00,CLR,,0.01,0.0,WeatherDisplay:10.37,2013-10-23 02:04:00,
2013-10-22 22:09:00,55.4,50.0,29.88,West,279,3.5,3.5,82,0.00,CLR,,0.01,0.0,WeatherDisplay:10.37,2013-10-23 02:09:00,
2013-10-22 22:14:00,55.4,50.0,29.88,WNW,298,1.2,0.0,82,0.00,CLR,,0.01,0.0,WeatherDisplay:10.37,2013-10-23 02:14:00,
2013-10-22 22:19:00,55.3,49.6,29.88,WNW,299,6.9,6.9,81,0.00,CLR,,0.01,0.0,WeatherDisplay:10.37,2013-10-23 02:19:00,
2013-10-22 22:24:00,55.3,49.6,29.88,WNW,289,6.9,6.9,81,0.00,CLR,,0.01,0.0,WeatherDisplay:10.37,2013-10-23 02:24:00,
2013-10-22 22:29:00,55.3,49.6,29.88,WNW,286,4.6,4.6,81,0.00,CLR,,0.01,0.0,WeatherDisplay:10.37,2013-10-23 02:29:00,
2013-10-22 22:34:00,55.3,49.6,29.88,WNW,282,6.9,6.9,81,0.00,CLR,,0.01,0.0,WeatherDisplay:10.37,2013-10-23 02:34:00,
2013-10-22 22:39:00,55.3,49.6,29.88,WNW,284,9.2,9.2,81,0.00,CLR,,0.01,0.0,WeatherDisplay:10.37,2013-10-23 02:39:00,
2013-10-22 22:44:00,55.3,49.6,29.88,WNW,292,5.0,5.0,81,0.00,CLR,,0.01,0.0,WeatherDisplay:10.37,2013-10-23 02:44:00,
2013-10-22 22:49:00,55.2,49.5,29.88,WNW,296,4.6,4.6,81,0.00,CLR,,0.01,0.0,WeatherDisplay:10.37,2013-10-23 02:49:00,
2013-10-22 22:54:00,55.2,49.8,29.88,WNW,294,6.0,6.0,82,0.00,CLR,,0.01,0.0,WeatherDisplay:10.37,2013-10-23 02:54:00,
2013-10-22 22:59:00,55.2,49.8,29.88,WNW,294,3.5,3.5,82,0.00,CLR,,0.01,0.0,WeatherDisplay:10.37,2013-10-23 02:59:00,
2013-10-22 23:04:00,55.0,49.6,29.88,NW,311,11.5,11.5,82,0.00,CLR,,0.01,0.0,WeatherDisplay:10.37,2013-10-23 03:04:00,
2013-10-22 23:09:00,55.0,49.9,29.88,WNW,302,3.5,3.5,83,0.00,CLR,,0.01,0.0,WeatherDisplay:10.37,2013-10-23 03:09:00,
2013-10-22 23:10:00,52.3,47.6,29.83,WNW,287,6.0,14.0,84,0.00,CLR,,0.00,0.0,WeatherDisplay:10.37,2013-10-23 03:10:00,
2013-10-22 23:14:00,55.0,49.9,29.88,NNW,331,12.7,12.7,83,0.00,CLR,,0.01,0.0,WeatherDisplay:10.37,2013-10-23 03:14:00,
2013-10-22 23:19:00,55.2,50.1,29.88,WNW,298,4.6,4.6,83,0.00,CLR,,0.01,0.0,WeatherDisplay:10.37,2013-10-23 03:19:00,
2013-10-22 23:24:00,55.4,50.0,29.88,WNW,298,5.8,5.8,82,0.00,CLR,,0.01,0.0,WeatherDisplay:10.37,2013-10-23 03:24:00,
2013-10-22 23:29:00,55.5,50.1,29.87,WNW,300,6.9,6.9,82,0.00,CLR,,0.01,0.0,WeatherDisplay:10.37,2013-10-23 03:29:00,
2013-10-22 23:34:00,55.5,50.1,29.87,West,281,4.6,4.6,82,0.00,CLR,,0.01,0.0,WeatherDisplay:10.37,2013-10-23 03:34:00,
2013-10-22 23:39:00,55.4,50.3,29.87,NW,312,6.0,6.0,83,0.00,CLR,,0.01,0.0,WeatherDisplay:10.37,2013-10-23 03:39:00,
2013-10-22 23:44:00,55.2,50.1,29.87,WNW,282,4.6,4.6,83,0.00,CLR,,0.01,0.0,WeatherDisplay:10.37,2013-10-23 03:44:00,
2013-10-22 23:49:00,55.1,50.4,29.87,WNW,291,10.4,10.4,84,0.00,CLR,,0.01,0.0,WeatherDisplay:10.37,2013-10-23 03:49:00,
2013-10-22 23:54:00,55.0,50.3,29.87,WNW,293,3.5,3.5,84,0.00,CLR,,0.01,0.0,WeatherDisplay:10.37,2013-10-23 03:54:00,
2013-10-22 23:59:00,54.9,50.5,29.87,WNW,286,4.6,4.6,85,0.00,CLR,,0.01,0.0,WeatherDisplay:10.37,2013-10-23 03:59:00,